Time;durP1;ratioP1;P1;durP2;ratioP2;P2;SDS_P1;SDS_P2;PMS_P1;PMS_P2;Temp;Humidity;BMP_temperature;BMP_pressure;BME280_temperature;BME280_humidity;BME280_pressure;Samples;Min_cycle;Max_cycle;Signal;HPM_P1;HPM_P2
2022/09/14 00:01:11;;;;;;;2.33;2.10;;;;;;;;;;5114997;27;20200;-65
2022/09/14 00:03:53;;;;;;;4.20;2.30;;;;;;;;;;5115267;27;20309;-65
2022/09/14 00:06:20;;;;;;;3.53;2.20;;;;;;;;;;5114094;27;20294;-65
2022/09/14 00:08:50;;;;;;;6.68;2.28;;;;;;;;;;5120674;27;20290;-66
2022/09/14 00:11:17;;;;;;;5.72;2.60;;;;;;;;;;5131508;27;20211;-66
2022/09/14 00:13:45;;;;;;;2.58;2.28;;;;;;;;;;5114810;27;20597;-67
2022/09/14 00:16:16;;;;;;;4.72;2.28;;;;;;;;;;5117546;27;20675;-66
2022/09/14 00:18:44;;;;;;;3.38;2.25;;;;;;;;;;5107696;27;20206;-65
2022/09/14 00:21:12;;;;;;;3.13;2.20;;;;;;;;;;5114303;27;20237;-66
2022/09/14 00:23:40;;;;;;;2.60;2.22;;;;;;;;;;5114322;27;20318;-66
2022/09/14 00:26:12;;;;;;;6.20;2.67;;;;;;;;;;5113113;27;20226;-66
2022/09/14 00:28:41;;;;;;;3.13;2.05;;;;;;;;;;5113619;27;20215;-67
2022/09/14 00:31:08;;;;;;;5.85;2.55;;;;;;;;;;5113702;27;20196;-65
2022/09/14 00:33:37;;;;;;;3.78;2.33;;;;;;;;;;5113956;27;20242;-66
2022/09/14 00:36:08;;;;;;;3.17;2.20;;;;;;;;;;5113262;27;20674;-66
2022/09/14 00:38:35;;;;;;;6.10;2.63;;;;;;;;;;5113737;27;20688;-65
2022/09/14 00:41:03;;;;;;;4.47;2.45;;;;;;;;;;5112448;27;20248;-66
2022/09/14 00:43:31;;;;;;;2.47;2.28;;;;;;;;;;5112982;27;20225;-67
2022/09/14 00:46:02;;;;;;;2.67;2.40;;;;;;;;;;5113542;27;20291;-67
2022/09/14 00:48:29;;;;;;;2.58;2.30;;;;;;;;;;5113878;27;20207;-66
2022/09/14 00:50:57;;;;;;;2.55;2.30;;;;;;;;;;5122612;27;20297;-66
2022/09/14 00:53:24;;;;;;;5.05;2.90;;;;;;;;;;5134312;27;20302;-65
2022/09/14 00:55:52;;;;;;;2.58;2.30;;;;;;;;;;5124102;27;20195;-66
2022/09/14 00:58:20;;;;;;;4.47;2.35;;;;;;;;;;5115208;27;20642;-67
2022/09/14 01:00:47;;;;;;;4.00;2.80;;;;;;;;;;5137441;27;20214;-67
2022/09/14 01:03:15;;;;;;;5.95;2.95;;;;;;;;;;5135253;27;20227;-65
2022/09/14 01:05:49;;;;;;;6.75;2.90;;;;;;;;;;5113429;27;20661;-66
2022/09/14 01:08:16;;;;;;;4.97;2.65;;;;;;;;;;5120966;27;20223;-66
2022/09/14 01:10:43;;;;;;;6.22;2.75;;;;;;;;;;5113160;27;20201;-66
2022/09/14 01:13:25;;;;;;;5.95;2.83;;;;;;;;;;5113195;27;20779;-65
2022/09/14 01:16:16;;;;;;;3.38;2.80;;;;;;;;;;5112603;27;20290;-66
2022/09/14 01:18:48;;;;;;;3.38;2.72;;;;;;;;;;5120275;27;20295;-66
2022/09/14 01:21:20;;;;;;;5.85;2.63;;;;;;;;;;5112895;27;20664;-66
2022/09/14 01:24:05;;;;;;;3.72;2.55;;;;;;;;;;5112841;27;20562;-65
2022/09/14 01:26:51;;;;;;;3.58;2.33;;;;;;;;;;5129962;27;20660;-66
2022/09/14 01:29:24;;;;;;;4.07;2.50;;;;;;;;;;5112277;27;20318;-66
2022/09/14 01:31:56;;;;;;;4.68;3.08;;;;;;;;;;5113070;27;20630;-66
2022/09/14 01:34:41;;;;;;;5.30;3.05;;;;;;;;;;5113214;27;20557;-66
2022/09/14 01:37:11;;;;;;;4.28;2.63;;;;;;;;;;5112636;27;20260;-66
2022/09/14 01:39:45;;;;;;;4.53;2.60;;;;;;;;;;5112958;27;20256;-66
2022/09/14 01:42:13;;;;;;;4.05;2.42;;;;;;;;;;5113562;28;20209;-66
2022/09/14 01:44:41;;;;;;;2.92;2.00;;;;;;;;;;5111967;28;20223;-66
2022/09/14 01:47:11;;;;;;;2.60;2.40;;;;;;;;;;5112614;28;20767;-66
2022/09/14 01:49:41;;;;;;;2.63;2.30;;;;;;;;;;5112810;28;20216;-66
2022/09/14 01:52:23;;;;;;;4.43;2.53;;;;;;;;;;5112934;28;20195;-66
2022/09/14 01:54:56;;;;;;;4.00;2.42;;;;;;;;;;5112681;28;20234;-66
2022/09/14 01:57:26;;;;;;;4.15;2.33;;;;;;;;;;5113056;28;20231;-65
2022/09/14 01:59:56;;;;;;;4.25;2.70;;;;;;;;;;5113007;28;20203;-65
2022/09/14 02:02:33;;;;;;;4.35;2.30;;;;;;;;;;5112656;28;20217;-66
2022/09/14 02:05:01;;;;;;;4.18;3.03;;;;;;;;;;5108812;28;20500;-66
2022/09/14 02:07:29;;;;;;;5.80;2.70;;;;;;;;;;5111603;28;20203;-66
2022/09/14 02:10:00;;;;;;;2.97;2.30;;;;;;;;;;5112908;28;20466;-66
2022/09/14 02:12:27;;;;;;;3.80;2.38;;;;;;;;;;5111648;28;20809;-65
2022/09/14 02:14:54;;;;;;;3.30;2.25;;;;;;;;;;5112375;28;20215;-65
2022/09/14 02:17:22;;;;;;;2.97;2.35;;;;;;;;;;5132281;27;20202;-65
2022/09/14 02:19:52;;;;;;;3.70;2.40;;;;;;;;;;5117928;28;20203;-65
2022/09/14 02:22:20;;;;;;;5.75;2.67;;;;;;;;;;5112542;28;20245;-66
2022/09/14 02:24:48;;;;;;;2.90;2.20;;;;;;;;;;5130602;28;20307;-65
2022/09/14 02:27:15;;;;;;;2.97;2.17;;;;;;;;;;5112700;27;20692;-65
2022/09/14 02:29:42;;;;;;;3.50;2.20;;;;;;;;;;5115933;27;20768;-65
2022/09/14 02:32:15;;;;;;;5.63;2.35;;;;;;;;;;5116918;27;20244;-66
2022/09/14 02:34:52;;;;;;;7.63;2.72;;;;;;;;;;5116338;27;20215;-65
2022/09/14 02:37:23;;;;;;;2.63;2.15;;;;;;;;;;5122890;27;20224;-66
2022/09/14 02:40:17;;;;;;;8.13;2.63;;;;;;;;;;5139114;27;20411;-66
2022/09/14 02:42:48;;;;;;;3.92;2.30;;;;;;;;;;5109413;27;20285;-66
2022/09/14 02:45:29;;;;;;;4.13;2.25;;;;;;;;;;5116092;27;20207;-66
2022/09/14 02:48:25;;;;;;;5.32;2.58;;;;;;;;;;5115469;27;20274;-67
2022/09/14 02:51:00;;;;;;;3.22;2.38;;;;;;;;;;5070361;28;20210;-66
2022/09/14 02:53:36;;;;;;;5.13;2.50;;;;;;;;;;5101416;27;20237;-66
2022/09/14 02:56:08;;;;;;;5.10;2.30;;;;;;;;;;5115445;27;20199;-67
2022/09/14 02:58:40;;;;;;;3.90;2.25;;;;;;;;;;5115928;27;20278;-66
2022/09/14 03:01:08;;;;;;;2.50;2.30;;;;;;;;;;5112270;28;20291;-65
2022/09/14 03:03:35;;;;;;;4.47;2.53;;;;;;;;;;5107760;27;20220;-65
2022/09/14 03:06:03;;;;;;;7.43;2.30;;;;;;;;;;5116191;27;20211;-66
2022/09/14 03:08:30;;;;;;;2.65;2.45;;;;;;;;;;5117438;27;20290;-66
2022/09/14 03:10:58;;;;;;;3.33;2.50;;;;;;;;;;5115372;27;20286;-65
2022/09/14 03:13:25;;;;;;;2.75;2.55;;;;;;;;;;5114296;27;20302;-66
2022/09/14 03:15:53;;;;;;;4.68;2.65;;;;;;;;;;5127724;27;20291;-65
2022/09/14 03:18:20;;;;;;;4.60;2.50;;;;;;;;;;5115371;27;20227;-66
2022/09/14 03:20:48;;;;;;;3.70;2.58;;;;;;;;;;5115423;27;20294;-66
2022/09/14 03:23:15;;;;;;;6.43;2.75;;;;;;;;;;5113374;27;20288;-66
2022/09/14 03:25:43;;;;;;;5.03;2.78;;;;;;;;;;5115020;27;20615;-66
2022/09/14 03:28:11;;;;;;;5.75;2.75;;;;;;;;;;5112679;27;20236;-66
2022/09/14 03:30:38;;;;;;;4.13;2.75;;;;;;;;;;5115567;27;20223;-66
2022/09/14 03:33:06;;;;;;;4.05;2.83;;;;;;;;;;5134359;27;20219;-65
2022/09/14 03:35:33;;;;;;;5.00;2.55;;;;;;;;;;5115532;27;20294;-65
2022/09/14 03:38:02;;;;;;;3.30;2.72;;;;;;;;;;5115023;27;20298;-65
2022/09/14 03:40:29;;;;;;;3.40;2.45;;;;;;;;;;5116240;27;20749;-66
2022/09/14 03:42:56;;;;;;;2.90;2.47;;;;;;;;;;5109432;27;20204;-66
2022/09/14 03:45:24;;;;;;;6.72;2.85;;;;;;;;;;5115857;27;20242;-65
2022/09/14 03:47:51;;;;;;;5.90;3.00;;;;;;;;;;5115386;27;20294;-66
2022/09/14 03:50:19;;;;;;;5.70;2.70;;;;;;;;;;5115778;27;20259;-66
2022/09/14 03:52:46;;;;;;;2.88;2.55;;;;;;;;;;5116156;27;20294;-66
2022/09/14 03:55:14;;;;;;;3.85;2.50;;;;;;;;;;5115888;27;20598;-65
2022/09/14 03:57:44;;;;;;;8.32;3.17;;;;;;;;;;5115156;27;20625;-64
2022/09/14 04:00:12;;;;;;;7.22;2.65;;;;;;;;;;5123948;27;20653;-66
2022/09/14 04:02:39;;;;;;;7.28;2.70;;;;;;;;;;5132527;27;20243;-66
2022/09/14 04:05:07;;;;;;;8.27;2.90;;;;;;;;;;5113259;27;20238;-65
2022/09/14 04:07:35;;;;;;;6.47;2.67;;;;;;;;;;5094025;28;20235;-65
2022/09/14 04:10:04;;;;;;;3.97;2.63;;;;;;;;;;5094111;28;20226;-65
2022/09/14 04:12:35;;;;;;;6.05;3.00;;;;;;;;;;5110917;27;20203;-66
2022/09/14 04:15:06;;;;;;;7.18;2.78;;;;;;;;;;5123008;27;20250;-66
2022/09/14 04:17:34;;;;;;;6.07;2.85;;;;;;;;;;5129101;27;20235;-66
2022/09/14 04:20:01;;;;;;;5.00;2.50;;;;;;;;;;5113801;27;20223;-65
2022/09/14 04:22:28;;;;;;;2.80;2.42;;;;;;;;;;5114082;27;20260;-65
2022/09/14 04:24:56;;;;;;;6.13;3.22;;;;;;;;;;5112829;27;20679;-66
2022/09/14 04:27:23;;;;;;;3.58;3.13;;;;;;;;;;5113709;27;20205;-66
2022/09/14 04:29:50;;;;;;;5.00;3.05;;;;;;;;;;5113681;27;20644;-66
2022/09/14 04:32:18;;;;;;;7.72;3.00;;;;;;;;;;5114429;27;20677;-66
2022/09/14 04:34:45;;;;;;;4.43;2.72;;;;;;;;;;5113785;27;20250;-65
2022/09/14 04:37:13;;;;;;;7.43;2.88;;;;;;;;;;5131536;27;20290;-65
2022/09/14 04:39:41;;;;;;;3.20;2.70;;;;;;;;;;5113084;27;20214;-65
2022/09/14 04:42:08;;;;;;;4.25;2.88;;;;;;;;;;5113363;27;20203;-65
2022/09/14 04:44:36;;;;;;;4.10;2.85;;;;;;;;;;5113730;27;20755;-66
2022/09/14 04:47:03;;;;;;;3.90;2.63;;;;;;;;;;5112879;27;20314;-65
2022/09/14 04:49:30;;;;;;;5.97;2.75;;;;;;;;;;5118289;27;20231;-65
2022/09/14 04:51:57;;;;;;;2.97;2.78;;;;;;;;;;5123601;27;20262;-65
2022/09/14 04:54:25;;;;;;;3.85;3.42;;;;;;;;;;5112717;27;20310;-65
2022/09/14 04:56:52;;;;;;;5.72;3.30;;;;;;;;;;5112925;27;20282;-65
2022/09/14 04:59:19;;;;;;;3.70;3.33;;;;;;;;;;5112936;27;20657;-65
2022/09/14 05:01:47;;;;;;;3.97;3.22;;;;;;;;;;5113234;27;20226;-65
2022/09/14 05:04:15;;;;;;;3.50;3.20;;;;;;;;;;5113061;27;20312;-65
2022/09/14 05:06:43;;;;;;;7.65;3.20;;;;;;;;;;5127603;27;20701;-65
2022/09/14 05:09:12;;;;;;;6.30;3.30;;;;;;;;;;5134025;27;20265;-65
2022/09/14 05:11:40;;;;;;;7.53;3.58;;;;;;;;;;5111830;27;20720;-65
2022/09/14 05:14:09;;;;;;;6.63;3.40;;;;;;;;;;5113118;27;20215;-65
2022/09/14 05:16:37;;;;;;;5.75;3.65;;;;;;;;;;5112374;27;20192;-66
2022/09/14 05:19:05;;;;;;;5.07;3.58;;;;;;;;;;5113040;27;20631;-66
2022/09/14 05:21:34;;;;;;;4.10;2.95;;;;;;;;;;5113056;27;20310;-66
2022/09/14 05:24:03;;;;;;;4.00;3.17;;;;;;;;;;5112499;27;20227;-67
2022/09/14 05:26:31;;;;;;;6.50;3.42;;;;;;;;;;5112717;27;20696;-65
2022/09/14 05:28:59;;;;;;;4.43;2.58;;;;;;;;;;5112726;27;20294;-65
2022/09/14 05:31:27;;;;;;;3.75;2.92;;;;;;;;;;5112172;27;20286;-66
2022/09/14 05:33:55;;;;;;;3.45;2.92;;;;;;;;;;5112584;28;20211;-66
2022/09/14 05:36:22;;;;;;;5.03;2.70;;;;;;;;;;5111193;28;20299;-64
2022/09/14 05:38:50;;;;;;;3.30;3.00;;;;;;;;;;5112924;27;20238;-66
2022/09/14 05:41:17;;;;;;;5.57;2.90;;;;;;;;;;5131549;27;20290;-66
2022/09/14 05:43:45;;;;;;;4.85;3.00;;;;;;;;;;5123109;27;20276;-66
2022/09/14 05:46:14;;;;;;;5.93;3.00;;;;;;;;;;5131118;28;20199;-66
2022/09/14 05:48:42;;;;;;;4.35;2.95;;;;;;;;;;5113272;28;20199;-66
2022/09/14 05:51:10;;;;;;;6.88;3.05;;;;;;;;;;5109053;28;20757;-65
2022/09/14 05:53:38;;;;;;;5.85;2.60;;;;;;;;;;5112390;28;20256;-66
2022/09/14 05:56:07;;;;;;;4.25;2.70;;;;;;;;;;5113531;27;20198;-66
2022/09/14 05:58:35;;;;;;;3.72;2.50;;;;;;;;;;5109093;27;20247;-66
2022/09/14 06:01:10;;;;;;;2.60;2.40;;;;;;;;;;5103714;28;20204;-66
2022/09/14 06:03:37;;;;;;;3.35;2.55;;;;;;;;;;5127133;27;20222;-67
2022/09/14 06:06:05;;;;;;;4.13;2.83;;;;;;;;;;5115761;27;20739;-66
2022/09/14 06:08:33;;;;;;;4.70;2.97;;;;;;;;;;5117116;27;20206;-64
2022/09/14 06:11:11;;;;;;;3.80;2.33;;;;;;;;;;5117468;27;20302;-65
2022/09/14 06:13:38;;;;;;;4.07;2.90;;;;;;;;;;5114741;27;20301;-67
2022/09/14 06:16:09;;;;;;;4.38;2.50;;;;;;;;;;5116435;27;20203;-67
2022/09/14 06:18:37;;;;;;;5.20;2.65;;;;;;;;;;5116453;27;20195;-64
2022/09/14 06:21:05;;;;;;;3.83;2.70;;;;;;;;;;5116891;27;20226;-67
2022/09/14 06:23:32;;;;;;;3.05;2.75;;;;;;;;;;5116077;27;20223;-67
2022/09/14 06:26:00;;;;;;;3.90;2.75;;;;;;;;;;5115695;27;20207;-64
2022/09/14 06:28:28;;;;;;;4.03;3.00;;;;;;;;;;5116105;27;20214;-65
2022/09/14 06:30:55;;;;;;;4.72;2.83;;;;;;;;;;5116544;27;20310;-66
2022/09/14 06:33:23;;;;;;;4.43;2.92;;;;;;;;;;5115298;27;20223;-66
2022/09/14 06:35:58;;;;;;;3.75;2.80;;;;;;;;;;5110053;27;20286;-64
2022/09/14 06:38:26;;;;;;;3.85;2.50;;;;;;;;;;5115988;27;20286;-66
2022/09/14 06:40:55;;;;;;;4.97;2.60;;;;;;;;;;5115779;27;20643;-67
2022/09/14 06:43:26;;;;;;;3.53;2.50;;;;;;;;;;5134474;27;20776;-66
2022/09/14 06:45:57;;;;;;;3.13;2.55;;;;;;;;;;5116086;27;20404;-66
2022/09/14 06:48:25;;;;;;;6.10;2.85;;;;;;;;;;5115169;27;20215;-65
2022/09/14 06:50:53;;;;;;;5.80;2.60;;;;;;;;;;5115575;27;20307;-66
2022/09/14 06:53:20;;;;;;;6.28;3.13;;;;;;;;;;5115903;27;20756;-66
2022/09/14 06:55:47;;;;;;;3.90;2.70;;;;;;;;;;5114962;27;20200;-66
2022/09/14 06:58:15;;;;;;;3.83;2.47;;;;;;;;;;5115143;27;20286;-66
2022/09/14 07:00:42;;;;;;;4.18;2.70;;;;;;;;;;5115709;27;20241;-67
2022/09/14 07:03:09;;;;;;;6.53;3.33;;;;;;;;;;5121665;27;20287;-67
2022/09/14 07:05:37;;;;;;;4.95;2.90;;;;;;;;;;5151894;27;20218;-68
2022/09/14 07:08:04;;;;;;;4.65;2.45;;;;;;;;;;5159062;27;20298;-66
2022/09/14 07:10:38;;;;;;;6.63;2.88;;;;;;;;;;5120500;27;20212;-65
2022/09/14 07:13:05;;;;;;;3.80;2.67;;;;;;;;;;5114715;27;20206;-66
2022/09/14 07:15:32;;;;;;;3.60;2.60;;;;;;;;;;5114790;27;20206;-66
2022/09/14 07:17:59;;;;;;;2.90;2.60;;;;;;;;;;5110585;27;20199;-64
2022/09/14 07:20:27;;;;;;;4.50;2.38;;;;;;;;;;5115540;27;20252;-66
2022/09/14 07:22:55;;;;;;;4.03;2.50;;;;;;;;;;5114829;27;20200;-65
2022/09/14 07:25:22;;;;;;;2.60;2.40;;;;;;;;;;5114884;27;20263;-64
2022/09/14 07:27:50;;;;;;;4.10;2.63;;;;;;;;;;5133128;27;20665;-66
2022/09/14 07:30:17;;;;;;;4.00;2.70;;;;;;;;;;5114479;27;20302;-66
2022/09/14 07:32:44;;;;;;;4.03;2.40;;;;;;;;;;5115120;27;20283;-66
2022/09/14 07:35:12;;;;;;;3.05;2.63;;;;;;;;;;5114352;27;20196;-67
2022/09/14 07:37:39;;;;;;;6.45;2.70;;;;;;;;;;5114970;27;20227;-66
2022/09/14 07:40:08;;;;;;;3.05;2.75;;;;;;;;;;5115996;27;20588;-66
2022/09/14 07:42:36;;;;;;;4.03;2.75;;;;;;;;;;5110091;27;20199;-66
2022/09/14 07:45:04;;;;;;;4.82;2.80;;;;;;;;;;5114841;27;20315;-65
2022/09/14 07:47:32;;;;;;;4.78;2.47;;;;;;;;;;5114712;27;20388;-66
2022/09/14 07:49:59;;;;;;;4.68;2.83;;;;;;;;;;5113327;27;20244;-66
2022/09/14 07:52:26;;;;;;;3.33;2.47;;;;;;;;;;5114844;27;20603;-65
2022/09/14 07:54:53;;;;;;;6.05;2.65;;;;;;;;;;5111933;27;20749;-65
2022/09/14 07:57:21;;;;;;;2.97;2.25;;;;;;;;;;5112637;27;20199;-66
2022/09/14 08:00:09;;;;;;;3.42;2.33;;;;;;;;;;5117729;27;20290;-65
2022/09/14 08:02:37;;;;;;;2.95;2.17;;;;;;;;;;5114293;27;20199;-68
2022/09/14 08:05:04;;;;;;;3.88;2.33;;;;;;;;;;5113944;27;20633;-66
2022/09/14 08:07:32;;;;;;;2.85;2.00;;;;;;;;;;5114580;27;20290;-66
2022/09/14 08:09:59;;;;;;;3.70;2.30;;;;;;;;;;5113931;27;20274;-66
2022/09/14 08:12:27;;;;;;;3.50;2.30;;;;;;;;;;5115231;27;20202;-66
2022/09/14 08:14:54;;;;;;;2.92;2.10;;;;;;;;;;5114460;27;20326;-66
2022/09/14 08:17:22;;;;;;;4.78;2.50;;;;;;;;;;5113447;27;20569;-65
2022/09/14 08:19:51;;;;;;;5.03;2.40;;;;;;;;;;5114077;27;20655;-66
2022/09/14 08:22:18;;;;;;;3.60;2.30;;;;;;;;;;5126227;27;20206;-66
2022/09/14 08:24:45;;;;;;;6.78;2.33;;;;;;;;;;5113248;27;20336;-65
2022/09/14 08:27:12;;;;;;;4.10;2.03;;;;;;;;;;5113781;27;20268;-65
2022/09/14 08:29:43;;;;;;;3.33;2.03;;;;;;;;;;5114887;27;20204;-66
2022/09/14 08:32:12;;;;;;;3.45;2.08;;;;;;;;;;5113721;27;20210;-67
2022/09/14 08:34:40;;;;;;;4.43;2.20;;;;;;;;;;5131871;27;20228;-65
2022/09/14 08:37:09;;;;;;;3.45;1.90;;;;;;;;;;5113228;27;20650;-66
2022/09/14 08:39:36;;;;;;;6.93;2.45;;;;;;;;;;5113672;27;20576;-66
2022/09/14 08:42:05;;;;;;;4.57;2.03;;;;;;;;;;5114161;27;20294;-66
2022/09/14 08:44:44;;;;;;;3.47;2.25;;;;;;;;;;5114019;27;20641;-67
2022/09/14 08:47:35;;;;;;;4.15;2.33;;;;;;;;;;5113570;27;20221;-64
2022/09/14 08:50:02;;;;;;;5.45;2.40;;;;;;;;;;5110741;27;20694;-66
2022/09/14 08:52:32;;;;;;;3.28;2.40;;;;;;;;;;5112847;27;20286;-66
2022/09/14 08:55:01;;;;;;;3.95;2.38;;;;;;;;;;5115354;27;20560;-67
2022/09/14 08:57:28;;;;;;;3.65;2.65;;;;;;;;;;5122231;27;20264;-66
2022/09/14 08:59:59;;;;;;;2.72;2.20;;;;;;;;;;5113732;27;20195;-67
2022/09/14 09:02:45;;;;;;;5.97;2.65;;;;;;;;;;5113630;27;20248;-67
2022/09/14 09:05:25;;;;;;;2.70;2.42;;;;;;;;;;5113617;27;20290;-66
2022/09/14 09:07:59;;;;;;;5.38;2.30;;;;;;;;;;5113517;27;20294;-66
2022/09/14 09:10:26;;;;;;;3.00;2.33;;;;;;;;;;5111677;27;20211;-66
2022/09/14 09:12:58;;;;;;;5.15;2.55;;;;;;;;;;5107340;27;20691;-67
2022/09/14 09:15:25;;;;;;;4.57;2.47;;;;;;;;;;5113372;27;20609;-67
2022/09/14 09:17:55;;;;;;;3.75;2.33;;;;;;;;;;5112259;27;20211;-66
2022/09/14 09:20:25;;;;;;;4.38;2.50;;;;;;;;;;5112312;27;20561;-66
2022/09/14 09:22:56;;;;;;;3.60;2.13;;;;;;;;;;5112530;27;20648;-66
2022/09/14 09:25:25;;;;;;;4.22;2.30;;;;;;;;;;5112590;27;20286;-65
2022/09/14 09:28:12;;;;;;;5.70;1.98;;;;;;;;;;5113065;27;20213;-66
2022/09/14 09:30:40;;;;;;;4.60;2.15;;;;;;;;;;5113225;27;20681;-64
2022/09/14 09:33:12;;;;;;;4.50;2.08;;;;;;;;;;5113276;27;20322;-66
2022/09/14 09:35:40;;;;;;;3.17;2.10;;;;;;;;;;5112826;27;20192;-66
2022/09/14 09:38:12;;;;;;;2.65;1.85;;;;;;;;;;5123186;27;20289;-66
2022/09/14 09:40:43;;;;;;;2.03;1.83;;;;;;;;;;5112619;28;20216;-66
2022/09/14 09:43:12;;;;;;;4.72;1.80;;;;;;;;;;5112930;28;20273;-66
2022/09/14 09:46:02;;;;;;;7.22;1.88;;;;;;;;;;5114247;27;20219;-66
2022/09/14 09:48:33;;;;;;;5.93;2.00;;;;;;;;;;5112710;28;20381;-66
2022/09/14 09:51:03;;;;;;;3.95;1.85;;;;;;;;;;5112779;28;20759;-65
2022/09/14 09:53:32;;;;;;;2.28;2.08;;;;;;;;;;5112291;28;20217;-66
2022/09/14 09:56:00;;;;;;;3.45;1.77;;;;;;;;;;5113226;28;20204;-66
2022/09/14 09:58:27;;;;;;;4.18;2.08;;;;;;;;;;5112684;28;20824;-65
2022/09/14 10:00:59;;;;;;;3.17;1.90;;;;;;;;;;5112638;28;20256;-67
2022/09/14 10:03:32;;;;;;;4.50;1.83;;;;;;;;;;5113085;28;20255;-67
2022/09/14 10:06:04;;;;;;;4.45;2.10;;;;;;;;;;5108453;28;20214;-67
2022/09/14 10:08:33;;;;;;;4.50;1.83;;;;;;;;;;5130650;28;20297;-67
2022/09/14 10:11:02;;;;;;;2.60;1.77;;;;;;;;;;5113002;27;20219;-66
2022/09/14 10:13:29;;;;;;;2.20;1.67;;;;;;;;;;5112260;28;20254;-66
2022/09/14 10:16:15;;;;;;;3.83;1.88;;;;;;;;;;5113249;28;20191;-65
2022/09/14 10:18:43;;;;;;;4.22;1.95;;;;;;;;;;5112450;28;20278;-64
2022/09/14 10:21:16;;;;;;;3.58;2.17;;;;;;;;;;5133403;27;20253;-67
2022/09/14 10:23:44;;;;;;;3.50;1.70;;;;;;;;;;5119410;28;20692;-64
2022/09/14 10:26:11;;;;;;;2.10;1.65;;;;;;;;;;5130045;28;20290;-66
2022/09/14 10:28:40;;;;;;;2.85;1.92;;;;;;;;;;5113835;28;20202;-69
2022/09/14 10:31:19;;;;;;;2.40;1.63;;;;;;;;;;5112573;28;20215;-65
2022/09/14 10:33:50;;;;;;;2.75;1.80;;;;;;;;;;5109513;28;20765;-65
2022/09/14 10:36:31;;;;;;;4.38;1.90;;;;;;;;;;5110020;28;20206;-66
2022/09/14 10:39:22;;;;;;;2.63;1.73;;;;;;;;;;5112559;28;20231;-66
2022/09/14 10:42:13;;;;;;;1.83;1.70;;;;;;;;;;5112336;28;20307;-66
2022/09/14 10:44:52;;;;;;;1.98;1.70;;;;;;;;;;5129452;28;20234;-64
2022/09/14 10:47:26;;;;;;;2.03;1.48;;;;;;;;;;5110899;28;20374;-65
2022/09/14 10:50:02;;;;;;;3.33;1.70;;;;;;;;;;5115943;27;20290;-66
2022/09/14 10:52:36;;;;;;;2.88;1.67;;;;;;;;;;5116176;27;20223;-66
2022/09/14 10:55:09;;;;;;;2.55;2.03;;;;;;;;;;5116295;27;20223;-65
2022/09/14 10:57:55;;;;;;;4.38;1.88;;;;;;;;;;5116164;27;20290;-66
2022/09/14 11:00:23;;;;;;;2.25;1.50;;;;;;;;;;5116117;27;20321;-66
2022/09/14 11:03:09;;;;;;;2.38;1.63;;;;;;;;;;5116603;27;20208;-67
2022/09/14 11:05:39;;;;;;;2.42;1.77;;;;;;;;;;5114258;28;20200;-65
2022/09/14 11:08:25;;;;;;;4.93;1.60;;;;;;;;;;5095927;28;20200;-63
2022/09/14 11:11:12;;;;;;;2.15;1.60;;;;;;;;;;5115612;27;20589;-66
2022/09/14 11:13:40;;;;;;;2.28;2.00;;;;;;;;;;5119096;27;20657;-65
2022/09/14 11:16:07;;;;;;;3.25;1.85;;;;;;;;;;5107712;28;20283;-69
2022/09/14 11:18:50;;;;;;;4.60;2.00;;;;;;;;;;5107713;27;20649;-66
2022/09/14 11:21:25;;;;;;;4.68;2.20;;;;;;;;;;5123488;27;20207;-66
2022/09/14 11:23:55;;;;;;;3.42;2.10;;;;;;;;;;5115347;27;20508;-66
2022/09/14 11:26:35;;;;;;;2.92;1.90;;;;;;;;;;5115604;27;20227;-66
2022/09/14 11:29:08;;;;;;;3.00;1.90;;;;;;;;;;5117313;27;20267;-66
2022/09/14 11:31:39;;;;;;;4.75;2.67;;;;;;;;;;5123051;27;20234;-66
2022/09/14 11:34:26;;;;;;;2.50;2.30;;;;;;;;;;5118946;27;20224;-66
2022/09/14 11:37:00;;;;;;;3.83;2.50;;;;;;;;;;5121748;27;20271;-64
2022/09/14 11:39:33;;;;;;;2.28;1.60;;;;;;;;;;5133431;27;20303;-66
2022/09/14 11:42:03;;;;;;;4.40;2.00;;;;;;;;;;5115119;27;20223;-66
2022/09/14 11:44:41;;;;;;;4.38;1.63;;;;;;;;;;5114824;27;20219;-67
2022/09/14 11:47:13;;;;;;;3.20;1.60;;;;;;;;;;5115047;27;20307;-66
2022/09/14 11:49:53;;;;;;;3.58;1.40;;;;;;;;;;5114580;27;20573;-64
2022/09/14 11:52:29;;;;;;;3.03;1.73;;;;;;;;;;5115013;27;20586;-66
2022/09/14 11:54:57;;;;;;;1.42;1.33;;;;;;;;;;5115582;27;20223;-66
2022/09/14 11:57:31;;;;;;;1.67;1.48;;;;;;;;;;5106044;27;20675;-65
2022/09/14 12:00:00;;;;;;;5.07;1.50;;;;;;;;;;5114313;27;20206;-66
2022/09/14 12:02:27;;;;;;;3.22;1.52;;;;;;;;;;5114654;27;20650;-67
2022/09/14 12:05:06;;;;;;;2.88;1.70;;;;;;;;;;5113630;27;20322;-66
2022/09/14 12:07:44;;;;;;;3.40;1.73;;;;;;;;;;5114177;27;20303;-68
2022/09/14 12:10:15;;;;;;;3.35;1.50;;;;;;;;;;5114772;27;20207;-67
2022/09/14 12:12:45;;;;;;;2.03;1.50;;;;;;;;;;5114221;27;20294;-65
2022/09/14 12:15:15;;;;;;;1.95;1.40;;;;;;;;;;5114748;27;20283;-65
2022/09/14 12:17:44;;;;;;;3.35;1.70;;;;;;;;;;5114682;27;20286;-65
2022/09/14 12:20:23;;;;;;;1.80;1.67;;;;;;;;;;5110807;27;20195;-66
2022/09/14 12:22:51;;;;;;;2.08;1.88;;;;;;;;;;5114464;27;20272;-65
2022/09/14 12:25:19;;;;;;;1.48;1.13;;;;;;;;;;5114931;27;20847;-66
2022/09/14 12:27:47;;;;;;;1.98;1.60;;;;;;;;;;5115194;27;20283;-69
2022/09/14 12:30:34;;;;;;;1.40;1.30;;;;;;;;;;5132334;27;20286;-66
2022/09/14 12:33:25;;;;;;;1.50;1.40;;;;;;;;;;5114692;27;20204;-68
2022/09/14 12:35:53;;;;;;;3.35;1.52;;;;;;;;;;5113466;27;20290;-67
2022/09/14 12:38:29;;;;;;;1.70;1.60;;;;;;;;;;5114170;27;20278;-65
2022/09/14 12:41:02;;;;;;;2.25;1.55;;;;;;;;;;5113650;27;20309;-66
2022/09/14 12:43:50;;;;;;;1.35;1.20;;;;;;;;;;5113483;27;20339;-66
2022/09/14 12:46:20;;;;;;;1.38;1.27;;;;;;;;;;5090626;27;20203;-66
2022/09/14 12:48:48;;;;;;;2.53;1.90;;;;;;;;;;5108104;28;20200;-64
2022/09/14 12:51:18;;;;;;;1.20;1.10;;;;;;;;;;5114316;27;20223;-66
2022/09/14 12:53:47;;;;;;;1.88;1.20;;;;;;;;;;5114290;27;20306;-65
2022/09/14 12:56:29;;;;;;;1.75;1.13;;;;;;;;;;5113792;27;20222;-65
2022/09/14 12:59:08;;;;;;;2.45;1.38;;;;;;;;;;5113338;27;20653;-65
2022/09/14 13:01:39;;;;;;;1.92;1.10;;;;;;;;;;5094139;28;20204;-65
2022/09/14 13:04:12;;;;;;;1.38;1.20;;;;;;;;;;5092566;28;20712;-66
2022/09/14 13:06:45;;;;;;;1.48;1.27;;;;;;;;;;5107669;27;20868;-65
2022/09/14 13:09:23;;;;;;;1.83;1.48;;;;;;;;;;5113551;27;20203;-66
2022/09/14 13:11:58;;;;;;;1.50;1.33;;;;;;;;;;5113068;27;20278;-65
2022/09/14 13:14:29;;;;;;;3.80;1.88;;;;;;;;;;5112997;27;20306;-65
2022/09/14 13:16:58;;;;;;;1.65;1.35;;;;;;;;;;5113172;27;20732;-65
2022/09/14 13:19:27;;;;;;;2.38;1.40;;;;;;;;;;5114498;27;20283;-65
2022/09/14 13:21:56;;;;;;;2.85;1.60;;;;;;;;;;5113466;27;20287;-65
2022/09/14 13:24:29;;;;;;;3.65;1.33;;;;;;;;;;5131255;27;20259;-66
2022/09/14 13:26:58;;;;;;;3.22;1.50;;;;;;;;;;5112505;27;20634;-66
2022/09/14 13:29:27;;;;;;;2.42;1.30;;;;;;;;;;5112098;27;20203;-64
2022/09/14 13:31:55;;;;;;;2.40;1.42;;;;;;;;;;5113299;27;20265;-67
2022/09/14 13:34:31;;;;;;;2.15;1.40;;;;;;;;;;5113234;27;20222;-68
2022/09/14 13:36:58;;;;;;;3.00;1.10;;;;;;;;;;5129889;27;20243;-65
2022/09/14 13:39:31;;;;;;;0.95;0.80;;;;;;;;;;5119041;27;20283;-66
2022/09/14 13:41:59;;;;;;;2.05;1.08;;;;;;;;;;5112954;27;20243;-66
2022/09/14 13:44:43;;;;;;;1.30;1.00;;;;;;;;;;5113120;28;21445;-66
2022/09/14 13:47:12;;;;;;;1.15;0.75;;;;;;;;;;5112081;28;20264;-65
2022/09/14 13:49:40;;;;;;;1.10;0.80;;;;;;;;;;5112606;28;20196;-68
2022/09/14 13:52:17;;;;;;;1.73;0.93;;;;;;;;;;5115047;27;20306;-66
2022/09/14 13:54:45;;;;;;;2.15;1.20;;;;;;;;;;5133638;27;20232;-67
2022/09/14 13:57:12;;;;;;;1.20;1.00;;;;;;;;;;5131058;27;20209;-65
2022/09/14 14:00:09;;;;;;;0.88;0.88;;;;;;;;;;5112709;28;20276;-65
2022/09/14 14:02:37;;;;;;;2.15;0.80;;;;;;;;;;5094633;28;20210;-67
2022/09/14 14:05:19;;;;;;;0.80;0.80;;;;;;;;;;5112552;28;20216;-66
2022/09/14 14:07:47;;;;;;;1.25;0.95;;;;;;;;;;5112607;28;20355;-65
2022/09/14 14:10:22;;;;;;;1.40;0.82;;;;;;;;;;5112394;28;20298;-65
2022/09/14 14:12:49;;;;;;;1.83;0.85;;;;;;;;;;5112242;28;20306;-66
2022/09/14 14:15:20;;;;;;;1.00;0.90;;;;;;;;;;5112737;28;20307;-67
2022/09/14 14:17:47;;;;;;;0.70;0.70;;;;;;;;;;5111959;28;20660;-66
2022/09/14 14:20:24;;;;;;;0.60;0.60;;;;;;;;;;5112105;28;20282;-66
2022/09/14 14:23:09;;;;;;;2.42;0.75;;;;;;;;;;5113000;27;20302;-66
2022/09/14 14:25:38;;;;;;;0.82;0.60;;;;;;;;;;5116374;27;20248;-66
2022/09/14 14:28:22;;;;;;;0.85;0.50;;;;;;;;;;5126129;27;20215;-66
2022/09/14 14:30:49;;;;;;;0.50;0.50;;;;;;;;;;5116214;27;20780;-66
2022/09/14 14:33:18;;;;;;;0.75;0.40;;;;;;;;;;5115240;27;20699;-65
2022/09/14 14:35:50;;;;;;;0.60;0.40;;;;;;;;;;5115791;27;20217;-65
2022/09/14 14:38:18;;;;;;;0.40;0.40;;;;;;;;;;5134388;27;20290;-65
2022/09/14 14:40:45;;;;;;;0.45;0.45;;;;;;;;;;5115987;27;20241;-66
2022/09/14 14:43:17;;;;;;;0.77;0.50;;;;;;;;;;5116307;27;20785;-66
2022/09/14 14:45:45;;;;;;;0.95;0.43;;;;;;;;;;5115957;27;20204;-66
2022/09/14 14:48:13;;;;;;;0.47;0.40;;;;;;;;;;5115524;27;20225;-65
2022/09/14 14:50:40;;;;;;;1.42;0.60;;;;;;;;;;5116222;27;20203;-65
2022/09/14 14:53:08;;;;;;;0.73;0.70;;;;;;;;;;5116266;27;20294;-65
2022/09/14 14:55:36;;;;;;;0.63;0.50;;;;;;;;;;5115591;27;20239;-67
2022/09/14 14:58:06;;;;;;;0.57;0.45;;;;;;;;;;5115812;27;20235;-64
2022/09/14 15:00:34;;;;;;;1.23;0.60;;;;;;;;;;5116001;27;20637;-67
2022/09/14 15:03:02;;;;;;;2.03;0.70;;;;;;;;;;5115451;27;20216;-65
2022/09/14 15:05:30;;;;;;;2.38;1.00;;;;;;;;;;5114646;27;20664;-67